Wilson Clyde — 8PRV — position and weather

sailwx.info

Track history (hours):
 
Tides and Currents Weather Stations Pressure Air Temp Water Temp Dewpoint Dewpoint Depression Visibility Wind Speed Wind Dir Waves Ship Positions

Wilson Clyde

Last reported at 2017-Dec-15 20:28 UTC. Time now 2017-Dec-15 21:45 UTC.
Position N 58°27' E 005°02'.

Length 100 m; draft 5.3 m.

Type: Cargo ship. MMSI: 314187000.

Date/timePositionNaut miles runAvg speedWind from/ knotsBaromVisibWave heightAir tempDewpointWater temp
2017-Dec-15 20:28N 58°27' E 005°02'510.4
2017-Dec-15 20:00N 58°32' E 005°00'510.3
2017-Dec-15 19:29N 58°37' E 004°58'510.6
2017-Dec-15 19:00N 58°42' E 004°56'510.7
2017-Dec-15 18:30N 58°47' E 004°54'510.3
2017-Dec-15 18:00N 58°53' E 004°52'5 9.9
2017-Dec-15 17:27N 58°58' E 004°50'4 9.7
2017-Dec-15 17:00N 59°02' E 004°48'6210.2
2017-Dec-15 10:55N 60°03' E 004°32'410.2
2017-Dec-15 10:30N 60°08' E 004°32'510.1
2017-Dec-15 10:00N 60°13' E 004°33'510.1
2017-Dec-15 09:30N 60°18' E 004°33'510.3
2017-Dec-15 09:00N 60°23' E 004°33'510.2
2017-Dec-15 08:30N 60°28' E 004°33'510.0
2017-Dec-15 08:00N 60°33' E 004°33'510.0
2017-Dec-15 07:30N 60°38' E 004°34'510.0
2017-Dec-15 07:00N 60°43' E 004°36'5 9.2
2017-Dec-15 06:30N 60°45' E 004°44'5 9.6
2017-Dec-15 06:00N 60°49' E 004°44'610.9
2017-Dec-15 05:30N 60°51' E 004°55'3 6.8
2017-Dec-15 05:00N 60°49' E 005°01'0 0.0
2017-Dec-15 04:30N 60°49' E 005°01'0 0.0
2017-Dec-15 04:00N 60°49' E 005°01'0 0.0
2017-Dec-15 02:30N 60°49' E 005°01'0 0.0
2017-Dec-15 01:00N 60°49' E 005°01'0 0.0
2017-Dec-15 00:30N 60°49' E 005°01'0 0.0
2017-Dec-14 18:30N 60°49' E 005°01'0 0.0
2017-Dec-14 18:00N 60°49' E 005°01'0 0.0
2017-Dec-14 17:30N 60°49' E 005°01'0 0.0
2017-Dec-14 17:00N 60°49' E 005°01'0 0.0
2017-Dec-14 16:30N 60°49' E 005°01'0 0.0
2017-Dec-14 16:00N 60°49' E 005°01'0 0.0
2017-Dec-14 15:00N 60°49' E 005°01'0 0.0
2017-Dec-14 14:30N 60°49' E 005°01'0 0.0
2017-Dec-14 14:00N 60°49' E 005°01'0 0.0
2017-Dec-14 13:30N 60°49' E 005°01'0 0.0
2017-Dec-14 13:00N 60°49' E 005°01'0 0.0
2017-Dec-14 12:30N 60°49' E 005°01'0 0.0
2017-Dec-14 12:00N 60°49' E 005°01'0 0.0
2017-Dec-14 11:31N 60°49' E 005°01'0 0.0
2017-Dec-14 11:00N 60°49' E 005°01'0 0.0
2017-Dec-14 10:30N 60°49' E 005°01'0 0.0
2017-Dec-14 10:00N 60°49' E 005°01'0 0.0
2017-Dec-14 09:30N 60°49' E 005°01'0 0.0
2017-Dec-14 09:00N 60°49' E 005°01'0 0.0
2017-Dec-14 08:30N 60°49' E 005°01'0 0.0
2017-Dec-14 08:00N 60°49' E 005°01'0 0.0
2017-Dec-14 07:30N 60°49' E 005°01'0 0.0
2017-Dec-14 07:00N 60°49' E 005°01'0 0.0
2017-Dec-14 06:30N 60°49' E 005°01'0 0.0
2017-Dec-14 06:01N 60°49' E 005°01'0 0.0
2017-Dec-14 05:30N 60°49' E 005°01'0 0.0
2017-Dec-14 05:00N 60°49' E 005°01'0 0.0
2017-Dec-14 04:31N 60°49' E 005°01'0 0.0
2017-Dec-14 04:00N 60°49' E 005°01'0 0.0
2017-Dec-14 03:30N 60°49' E 005°01'0 0.0
2017-Dec-14 03:00N 60°49' E 005°01'0 0.0
2017-Dec-14 02:30N 60°49' E 005°01'0 0.0
2017-Dec-14 02:00N 60°49' E 005°01'0 0.0
2017-Dec-14 01:30N 60°49' E 005°01'1 1.7
2017-Dec-14 01:00N 60°49' E 004°59'510.7
2017-Dec-14 00:30N 60°51' E 004°49'510.2
2017-Dec-14 00:00N 60°51' E 004°39'5 9.4
2017-Dec-13 23:30N 60°54' E 004°31'5 9.0
2017-Dec-13 22:59N 60°59' E 004°28'4 8.5
2017-Dec-13 22:30N 61°03' E 004°27'5 9.3
2017-Dec-13 22:00N 61°07' E 004°27'5 9.2
2017-Dec-13 21:30N 61°12' E 004°27'5 9.8
2017-Dec-13 21:00N 61°17' E 004°27'510.0
2017-Dec-13 20:30N 61°22' E 004°27'510.2
2017-Dec-13 20:00N 61°27' E 004°27'510.3
2017-Dec-13 19:30N 61°32' E 004°27'510.1
2017-Dec-13 19:00N 61°37' E 004°27'5 9.8
2017-Dec-13 18:30N 61°42' E 004°27'5 9.5
2017-Dec-13 18:00N 61°47' E 004°30'5 9.8
2017-Dec-13 17:29N 61°51' E 004°34'5 9.7
2017-Dec-13 17:00N 61°55' E 004°38'5 9.3
2017-Dec-13 16:30N 61°60' E 004°41'5 9.2
2017-Dec-13 15:59N 62°04' E 004°45'5 9.4
2017-Dec-13 15:30N 62°08' E 004°50'5 9.0
2017-Dec-13 15:00N 62°12' E 004°56'5 9.4
2017-Dec-13 14:29N 62°16' E 005°01'5 9.7
2017-Dec-13 14:00N 62°20' E 005°07'610.9
2017-Dec-13 13:30N 62°25' E 005°12'611.4
2017-Dec-13 13:00N 62°29' E 005°19'611.1
2017-Dec-13 12:30N 62°33' E 005°27'611.1
2017-Dec-13 12:00N 62°37' E 005°36'611.2
2017-Dec-13 11:29N 62°41' E 005°45'510.9
2017-Dec-13 11:00N 62°45' E 005°53'510.5
2017-Dec-13 10:30N 62°49' E 006°02'510.3
2017-Dec-13 10:00N 62°52' E 006°10'510.4
2017-Dec-13 09:30N 62°56' E 006°18'510.4
2017-Dec-13 09:00N 62°60' E 006°26'5 9.3
2017-Dec-13 08:29N 63°02' E 006°34'5 9.8
2017-Dec-13 08:00N 63°04' E 006°44'510.0
2017-Dec-13 07:30N 63°06' E 006°54'5 9.7
2017-Dec-13 07:00N 63°08' E 007°04'5 9.4
2017-Dec-13 06:30N 63°10' E 007°13'4 8.9
2017-Dec-13 06:00N 63°13' E 007°21'4 8.3
2017-Dec-13 05:30N 63°14' E 007°30'4 8.1
2017-Dec-13 05:00N 63°15' E 007°39'5 9.9
2017-Dec-13 04:30N 63°13' E 007°49'4 8.7
2017-Dec-13 04:00N 63°14' E 007°59'510.3
2017-Dec-13 03:30N 63°17' E 008°09'5 9.8
2017-Dec-13 03:00N 63°20' E 008°17'510.1
2017-Dec-13 02:29N 63°23' E 008°27'510.7
2017-Dec-13 01:59N 63°25' E 008°37'510.6
2017-Dec-13 01:30N 63°27' E 008°48'610.9
2017-Dec-13 00:59N 63°29' E 008°60'510.8
2017-Dec-13 00:30N 63°31' E 009°10'610.9
2017-Dec-13 00:00N 63°34' E 009°21'611.1
2017-Dec-12 23:30N 63°37' E 009°32'611.6
2017-Dec-12 23:00N 63°39' E 009°44'612.2
2017-Dec-12 22:30N 63°34' E 009°50'612.8
2017-Dec-12 22:00N 63°29' E 009°57'611.7
2017-Dec-12 21:30N 63°23' E 009°58'4 8.3
2017-Dec-12 21:00N 63°19' E 009°53'0 0.0
2017-Dec-12 20:30N 63°19' E 009°53'0 0.0
2017-Dec-12 20:00N 63°19' E 009°53'0 0.0
2017-Dec-12 19:30N 63°19' E 009°53'0 0.0
2017-Dec-12 19:00N 63°19' E 009°53'0 0.0
2017-Dec-12 18:30N 63°19' E 009°53'0 0.0
2017-Dec-12 18:00N 63°19' E 009°53'0 0.0
2017-Dec-12 17:30N 63°19' E 009°53'0 0.0
2017-Dec-12 17:00N 63°19' E 009°53'0 0.0
2017-Dec-12 16:30N 63°19' E 009°53'0 0.0
2017-Dec-12 16:00N 63°19' E 009°53'0 0.0
2017-Dec-12 15:30N 63°19' E 009°53'0 0.0
2017-Dec-12 15:00N 63°19' E 009°53'0 0.0
2017-Dec-12 14:30N 63°19' E 009°53'0 0.0
2017-Dec-12 14:00N 63°19' E 009°53'0 0.0
2017-Dec-12 13:30N 63°19' E 009°53'0 0.0
2017-Dec-12 13:00N 63°19' E 009°53'0 0.0
2017-Dec-12 12:30N 63°19' E 009°53'0 0.0
2017-Dec-12 12:00N 63°19' E 009°53'0 0.0
2017-Dec-12 11:30N 63°19' E 009°53'0 0.0
2017-Dec-12 11:00N 63°19' E 009°53'0 0.0
2017-Dec-12 10:30N 63°19' E 009°53'0 0.0
2017-Dec-12 10:00N 63°19' E 009°53'0 0.0
2017-Dec-12 09:30N 63°19' E 009°53'0 0.0
2017-Dec-12 09:00N 63°19' E 009°53'0 0.0
2017-Dec-12 08:27N 63°19' E 009°53'0 0.0
2017-Dec-12 08:00N 63°19' E 009°53'0 0.0
2017-Dec-12 07:30N 63°19' E 009°53'0 0.0
2017-Dec-12 07:00N 63°19' E 009°53'0 0.0
2017-Dec-12 06:30N 63°19' E 009°53'0 0.0
2017-Dec-12 06:00N 63°19' E 009°53'0 0.2
2017-Dec-12 05:30N 63°19' E 009°53'4 7.2
2017-Dec-12 05:00N 63°22' E 009°57'510.4
2017-Dec-12 04:30N 63°28' E 009°59'510.1
2017-Dec-12 04:00N 63°32' E 009°53'510.7
2017-Dec-12 03:30N 63°37' E 009°48'4 7.8
2017-Dec-12 02:59N 63°39' E 009°40'510.7
2017-Dec-12 02:30N 63°36' E 009°30'611.2
2017-Dec-12 02:00N 63°33' E 009°19'611.9
2017-Dec-12 01:29N 63°30' E 009°07'611.5
2017-Dec-12 01:00N 63°28' E 008°56'611.3
2017-Dec-12 00:30N 63°26' E 008°44'611.4
2017-Dec-12 00:00N 63°24' E 008°32'611.2
2017-Dec-11 23:30N 63°21' E 008°22'611.5
2017-Dec-11 22:59N 63°17' E 008°12'611.6
2017-Dec-11 22:29N 63°14' E 008°00'510.6
2017-Dec-11 22:00N 63°13' E 007°49'5 9.6
2017-Dec-11 21:30N 63°15' E 007°39'510.2
2017-Dec-11 21:00N 63°13' E 007°28'510.7
2017-Dec-11 20:30N 63°11' E 007°17'5 9.9
2017-Dec-11 20:00N 63°10' E 007°06'2 3.5
2017-Dec-11 19:30N 63°11' E 007°10'4 7.8
2017-Dec-11 19:00N 63°08' E 007°03'510.4
2017-Dec-11 18:30N 63°06' E 006°53'510.2
2017-Dec-11 18:00N 63°04' E 006°42'510.2
2017-Dec-11 17:30N 63°02' E 006°32'510.1
2017-Dec-11 17:00N 62°59' E 006°23'510.2
2017-Dec-11 16:29N 62°55' E 006°15'510.1
2017-Dec-11 16:00N 62°52' E 006°08'510.1
2017-Dec-11 15:30N 62°48' E 005°60'510.2
2017-Dec-11 15:00N 62°44' E 005°52'510.1
2017-Dec-11 14:30N 62°41' E 005°44'510.2
2017-Dec-11 14:00N 62°37' E 005°36'510.2
2017-Dec-11 13:30N 62°34' E 005°28'510.1
2017-Dec-11 13:00N 62°30' E 005°20'5 9.9
2017-Dec-11 12:30N 62°26' E 005°15'5 9.8
2017-Dec-11 11:59N 62°22' E 005°09'5 9.8
2017-Dec-11 11:30N 62°18' E 005°04'510.3
2017-Dec-11 11:00N 62°13' E 004°57'510.2
2017-Dec-11 10:30N 62°09' E 004°51'5 9.9
2017-Dec-11 10:00N 62°05' E 004°46'5 9.7
2017-Dec-11 09:30N 62°00' E 004°42'2 3.7
2017-Dec-11 09:00N 61°59' E 004°41'2 3.5
2017-Dec-11 08:30N 61°57' E 004°39'2 4.5
2017-Dec-11 08:00N 61°55' E 004°37'3 5.7
2017-Dec-11 07:29N 61°52' E 004°35'3 6.9
2017-Dec-11 07:00N 61°49' E 004°32'4 9.0
2017-Dec-11 06:30N 61°45' E 004°28'5 9.1
2017-Dec-11 06:00N 61°41' E 004°25'15 8.8
2017-Dec-11 04:15N 61°26' E 004°19'2 8.6
2017-Dec-11 04:00N 61°24' E 004°19'4 8.7
2017-Dec-11 03:30N 61°19' E 004°19'4 8.9
2017-Dec-11 03:00N 61°15' E 004°18'5 8.9
2017-Dec-11 02:30N 61°10' E 004°18'4 9.0
2017-Dec-11 02:00N 61°06' E 004°18'4 8.8
2017-Dec-11 01:30N 61°02' E 004°17'5 9.0
2017-Dec-11 01:00N 60°57' E 004°17'4 8.9
2017-Dec-11 00:30N 60°53' E 004°18'4 8.9
2017-Dec-11 00:00N 60°48' E 004°19'5 9.2
2017-Dec-10 23:30N 60°44' E 004°21'5 9.2
2017-Dec-10 22:59N 60°39' E 004°22'4 8.9
2017-Dec-10 22:30N 60°35' E 004°23'5 9.1
2017-Dec-10 22:00N 60°30' E 004°25'5 9.3
2017-Dec-10 21:30N 60°26' E 004°25'5 9.1
2017-Dec-10 21:00N 60°21' E 004°26'86 8.3
2017-Dec-10 10:38N 58°56' E 004°57'1 8.6
2017-Dec-10 10:30N 58°55' E 004°58'4 8.4
2017-Dec-10 10:00N 58°51' E 005°01'4 8.1
2017-Dec-10 09:30N 58°47' E 005°02'5 9.1
2017-Dec-10 09:00N 58°43' E 005°04'4 8.9
2017-Dec-10 08:30N 58°38' E 005°07'4 8.7
2017-Dec-10 08:00N 58°34' E 005°10'4 8.7
2017-Dec-10 07:30N 58°30' E 005°13'4 8.4
2017-Dec-10 07:00N 58°27' E 005°16'4 8.7
2017-Dec-10 06:30N 58°23' E 005°21'4 8.4
2017-Dec-10 06:00N 58°20' E 005°26'4 8.1
2017-Dec-10 05:30N 58°16' E 005°31'4 7.8
2017-Dec-10 05:00N 58°14' E 005°36'279 6.1
2017-Dec-08 07:04N 53°36' E 004°50'1 8.6
2017-Dec-08 07:00N 53°35' E 004°49'4 8.2
2017-Dec-08 06:28N 53°31' E 004°47'4 7.7
2017-Dec-08 05:59N 53°28' E 004°44'4 7.3
2017-Dec-08 05:29N 53°25' E 004°42'19 7.3
2017-Dec-08 02:57N 53°08' E 004°29'3 7.1
2017-Dec-08 02:28N 53°05' E 004°26'6 7.0
2017-Dec-08 01:38N 52°60' E 004°22'1 7.1
2017-Dec-08 01:29N 52°59' E 004°21'3 7.0
2017-Dec-08 01:00N 52°56' E 004°18'4 6.8
2017-Dec-08 00:22N 52°52' E 004°15'2 6.5
2017-Dec-08 00:01N 52°50' E 004°13'3 5.9
2017-Dec-07 23:30N 52°47' E 004°12'2 5.0
2017-Dec-07 23:00N 52°45' E 004°11'2 4.2
2017-Dec-07 22:30N 52°43' E 004°13'2 4.5
2017-Dec-07 22:00N 52°41' E 004°14'3 5.1
2017-Dec-07 21:30N 52°38' E 004°16'3 5.6
2017-Dec-07 21:00N 52°36' E 004°19'3 6.4
2017-Dec-07 20:31N 52°34' E 004°23'4 7.7
2017-Dec-07 20:00N 52°31' E 004°27'4 8.0
2017-Dec-07 19:30N 52°28' E 004°32'3 5.4
2017-Dec-07 19:00N 52°28' E 004°36'0 1.0
2017-Dec-07 18:30N 52°28' E 004°37'3 6.5
2017-Dec-07 18:00N 52°27' E 004°42'4 5.4
2017-Dec-07 17:17N 52°24' E 004°47'0 0.0
2017-Dec-07 16:50N 52°24' E 004°47'0 0.0
2017-Dec-07 16:26N 52°24' E 004°47'0 0.0
2017-Dec-07 15:59N 52°24' E 004°47'0 0.0
2017-Dec-07 15:29N 52°24' E 004°47'0 0.0
2017-Dec-07 14:56N 52°24' E 004°47'0 0.0
2017-Dec-07 14:29N 52°24' E 004°47'0 0.0
2017-Dec-07 13:56N 52°24' E 004°47'0 0.0
2017-Dec-07 13:26N 52°24' E 004°47'0 0.0
2017-Dec-07 12:59N 52°24' E 004°47'0 0.0
2017-Dec-07 12:29N 52°24' E 004°47'0 0.0
2017-Dec-07 11:59N 52°24' E 004°47'0 0.0
2017-Dec-07 11:29N 52°24' E 004°47'0 0.0
2017-Dec-07 10:59N 52°24' E 004°47'0 0.0
2017-Dec-07 10:29N 52°24' E 004°47'0 0.0
2017-Dec-07 09:56N 52°24' E 004°47'0 0.0
2017-Dec-07 09:23N 52°24' E 004°47'0 0.0
2017-Dec-07 08:59N 52°24' E 004°47'0 0.0
2017-Dec-07 08:17N 52°24' E 004°47'0 0.0
2017-Dec-07 07:59N 52°24' E 004°47'0 0.0
2017-Dec-07 07:29N 52°24' E 004°47'0 0.0
2017-Dec-07 06:56N 52°24' E 004°47'0 0.0
2017-Dec-07 06:26N 52°24' E 004°47'0 0.0
2017-Dec-07 05:53N 52°24' E 004°47'0 0.0
2017-Dec-07 05:29N 52°24' E 004°47'0 0.0
2017-Dec-07 04:59N 52°24' E 004°47'0 0.0
2017-Dec-07 04:29N 52°24' E 004°47'0 0.0
2017-Dec-07 03:59N 52°24' E 004°47'0 0.0
2017-Dec-07 03:20N 52°24' E 004°47'0 0.0
2017-Dec-07 02:59N 52°24' E 004°47'0 0.3
2017-Dec-07 02:26N 52°24' E 004°47'0 0.0
2017-Dec-07 01:53N 52°24' E 004°47'0 0.0
2017-Dec-07 01:26N 52°24' E 004°47'0 0.0
2017-Dec-07 00:56N 52°24' E 004°47'0 0.0
2017-Dec-07 00:26N 52°24' E 004°47'0 0.0
2017-Dec-06 23:59N 52°24' E 004°47'0 0.0
2017-Dec-06 23:29N 52°24' E 004°47'0 0.0
2017-Dec-06 22:59N 52°24' E 004°47'0 0.0
2017-Dec-06 22:29N 52°24' E 004°47'0 0.0
2017-Dec-06 21:59N 52°24' E 004°47'0 0.0
2017-Dec-06 21:29N 52°24' E 004°47'0 0.0
2017-Dec-06 20:59N 52°24' E 004°47'  
Track history (hours):
 
Tides and Currents Weather Stations Pressure Air Temp Water Temp Dewpoint Dewpoint Depression Visibility Wind Speed Wind Dir Waves Ship Positions

Wilson Clyde

Last reported at 2017-Dec-15 20:28 UTC. Time now 2017-Dec-15 21:45 UTC.
Position N 58°27' E 005°02'.

Length 100 m; draft 5.3 m.

Type: Cargo ship. MMSI: 314187000.

Date/timePositionNaut miles runAvg speedWind from/ knotsBaromVisibWave heightAir tempDewpointWater temp
2017-Dec-15 20:28N 58°27' E 005°02'510.4
2017-Dec-15 20:00N 58°32' E 005°00'510.3
2017-Dec-15 19:29N 58°37' E 004°58'510.6
2017-Dec-15 19:00N 58°42' E 004°56'510.7
2017-Dec-15 18:30N 58°47' E 004°54'510.3
2017-Dec-15 18:00N 58°53' E 004°52'5 9.9
2017-Dec-15 17:27N 58°58' E 004°50'4 9.7
2017-Dec-15 17:00N 59°02' E 004°48'6210.2
2017-Dec-15 10:55N 60°03' E 004°32'410.2
2017-Dec-15 10:30N 60°08' E 004°32'510.1
2017-Dec-15 10:00N 60°13' E 004°33'510.1
2017-Dec-15 09:30N 60°18' E 004°33'510.3
2017-Dec-15 09:00N 60°23' E 004°33'510.2
2017-Dec-15 08:30N 60°28' E 004°33'510.0
2017-Dec-15 08:00N 60°33' E 004°33'510.0
2017-Dec-15 07:30N 60°38' E 004°34'510.0
2017-Dec-15 07:00N 60°43' E 004°36'5 9.2
2017-Dec-15 06:30N 60°45' E 004°44'5 9.6
2017-Dec-15 06:00N 60°49' E 004°44'610.9
2017-Dec-15 05:30N 60°51' E 004°55'3 6.8
2017-Dec-15 05:00N 60°49' E 005°01'0 0.0
2017-Dec-15 04:30N 60°49' E 005°01'0 0.0
2017-Dec-15 04:00N 60°49' E 005°01'0 0.0
2017-Dec-15 02:30N 60°49' E 005°01'0 0.0
2017-Dec-15 01:00N 60°49' E 005°01'0 0.0
2017-Dec-15 00:30N 60°49' E 005°01'0 0.0
2017-Dec-14 18:30N 60°49' E 005°01'0 0.0
2017-Dec-14 18:00N 60°49' E 005°01'0 0.0
2017-Dec-14 17:30N 60°49' E 005°01'0 0.0
2017-Dec-14 17:00N 60°49' E 005°01'0 0.0
2017-Dec-14 16:30N 60°49' E 005°01'0 0.0
2017-Dec-14 16:00N 60°49' E 005°01'0 0.0
2017-Dec-14 15:00N 60°49' E 005°01'0 0.0
2017-Dec-14 14:30N 60°49' E 005°01'0 0.0
2017-Dec-14 14:00N 60°49' E 005°01'0 0.0
2017-Dec-14 13:30N 60°49' E 005°01'0 0.0
2017-Dec-14 13:00N 60°49' E 005°01'0 0.0
2017-Dec-14 12:30N 60°49' E 005°01'0 0.0
2017-Dec-14 12:00N 60°49' E 005°01'0 0.0
2017-Dec-14 11:31N 60°49' E 005°01'0 0.0
2017-Dec-14 11:00N 60°49' E 005°01'0 0.0
2017-Dec-14 10:30N 60°49' E 005°01'0 0.0
2017-Dec-14 10:00N 60°49' E 005°01'0 0.0
2017-Dec-14 09:30N 60°49' E 005°01'0 0.0
2017-Dec-14 09:00N 60°49' E 005°01'0 0.0
2017-Dec-14 08:30N 60°49' E 005°01'0 0.0
2017-Dec-14 08:00N 60°49' E 005°01'0 0.0
2017-Dec-14 07:30N 60°49' E 005°01'0 0.0
2017-Dec-14 07:00N 60°49' E 005°01'0 0.0
2017-Dec-14 06:30N 60°49' E 005°01'0 0.0
2017-Dec-14 06:01N 60°49' E 005°01'0 0.0
2017-Dec-14 05:30N 60°49' E 005°01'0 0.0
2017-Dec-14 05:00N 60°49' E 005°01'0 0.0
2017-Dec-14 04:31N 60°49' E 005°01'0 0.0
2017-Dec-14 04:00N 60°49' E 005°01'0 0.0
2017-Dec-14 03:30N 60°49' E 005°01'0 0.0
2017-Dec-14 03:00N 60°49' E 005°01'0 0.0
2017-Dec-14 02:30N 60°49' E 005°01'0 0.0
2017-Dec-14 02:00N 60°49' E 005°01'0 0.0
2017-Dec-14 01:30N 60°49' E 005°01'1 1.7
2017-Dec-14 01:00N 60°49' E 004°59'510.7
2017-Dec-14 00:30N 60°51' E 004°49'510.2
2017-Dec-14 00:00N 60°51' E 004°39'5 9.4
2017-Dec-13 23:30N 60°54' E 004°31'5 9.0
2017-Dec-13 22:59N 60°59' E 004°28'4 8.5
2017-Dec-13 22:30N 61°03' E 004°27'5 9.3
2017-Dec-13 22:00N 61°07' E 004°27'5 9.2
2017-Dec-13 21:30N 61°12' E 004°27'5 9.8
2017-Dec-13 21:00N 61°17' E 004°27'510.0
2017-Dec-13 20:30N 61°22' E 004°27'510.2
2017-Dec-13 20:00N 61°27' E 004°27'510.3
2017-Dec-13 19:30N 61°32' E 004°27'510.1
2017-Dec-13 19:00N 61°37' E 004°27'5 9.8
2017-Dec-13 18:30N 61°42' E 004°27'5 9.5
2017-Dec-13 18:00N 61°47' E 004°30'5 9.8
2017-Dec-13 17:29N 61°51' E 004°34'5 9.7
2017-Dec-13 17:00N 61°55' E 004°38'5 9.3
2017-Dec-13 16:30N 61°60' E 004°41'5 9.2
2017-Dec-13 15:59N 62°04' E 004°45'5 9.4
2017-Dec-13 15:30N 62°08' E 004°50'5 9.0
2017-Dec-13 15:00N 62°12' E 004°56'5 9.4
2017-Dec-13 14:29N 62°16' E 005°01'5 9.7
2017-Dec-13 14:00N 62°20' E 005°07'610.9
2017-Dec-13 13:30N 62°25' E 005°12'611.4
2017-Dec-13 13:00N 62°29' E 005°19'611.1
2017-Dec-13 12:30N 62°33' E 005°27'611.1
2017-Dec-13 12:00N 62°37' E 005°36'611.2
2017-Dec-13 11:29N 62°41' E 005°45'510.9
2017-Dec-13 11:00N 62°45' E 005°53'510.5
2017-Dec-13 10:30N 62°49' E 006°02'510.3
2017-Dec-13 10:00N 62°52' E 006°10'510.4
2017-Dec-13 09:30N 62°56' E 006°18'510.4
2017-Dec-13 09:00N 62°60' E 006°26'5 9.3
2017-Dec-13 08:29N 63°02' E 006°34'5 9.8
2017-Dec-13 08:00N 63°04' E 006°44'510.0
2017-Dec-13 07:30N 63°06' E 006°54'5 9.7
2017-Dec-13 07:00N 63°08' E 007°04'5 9.4
2017-Dec-13 06:30N 63°10' E 007°13'4 8.9
2017-Dec-13 06:00N 63°13' E 007°21'4 8.3
2017-Dec-13 05:30N 63°14' E 007°30'4 8.1
2017-Dec-13 05:00N 63°15' E 007°39'5 9.9
2017-Dec-13 04:30N 63°13' E 007°49'4 8.7
2017-Dec-13 04:00N 63°14' E 007°59'510.3
2017-Dec-13 03:30N 63°17' E 008°09'5 9.8
2017-Dec-13 03:00N 63°20' E 008°17'510.1
2017-Dec-13 02:29N 63°23' E 008°27'510.7
2017-Dec-13 01:59N 63°25' E 008°37'510.6
2017-Dec-13 01:30N 63°27' E 008°48'610.9
2017-Dec-13 00:59N 63°29' E 008°60'510.8
2017-Dec-13 00:30N 63°31' E 009°10'610.9
2017-Dec-13 00:00N 63°34' E 009°21'611.1
2017-Dec-12 23:30N 63°37' E 009°32'611.6
2017-Dec-12 23:00N 63°39' E 009°44'612.2
2017-Dec-12 22:30N 63°34' E 009°50'612.8
2017-Dec-12 22:00N 63°29' E 009°57'611.7
2017-Dec-12 21:30N 63°23' E 009°58'4 8.3
2017-Dec-12 21:00N 63°19' E 009°53'0 0.0
2017-Dec-12 20:30N 63°19' E 009°53'0 0.0
2017-Dec-12 20:00N 63°19' E 009°53'0 0.0
2017-Dec-12 19:30N 63°19' E 009°53'0 0.0
2017-Dec-12 19:00N 63°19' E 009°53'0 0.0
2017-Dec-12 18:30N 63°19' E 009°53'0 0.0
2017-Dec-12 18:00N 63°19' E 009°53'0 0.0
2017-Dec-12 17:30N 63°19' E 009°53'0 0.0
2017-Dec-12 17:00N 63°19' E 009°53'0 0.0
2017-Dec-12 16:30N 63°19' E 009°53'0 0.0
2017-Dec-12 16:00N 63°19' E 009°53'0 0.0
2017-Dec-12 15:30N 63°19' E 009°53'0 0.0
2017-Dec-12 15:00N 63°19' E 009°53'0 0.0
2017-Dec-12 14:30N 63°19' E 009°53'0 0.0
2017-Dec-12 14:00N 63°19' E 009°53'0 0.0
2017-Dec-12 13:30N 63°19' E 009°53'0 0.0
2017-Dec-12 13:00N 63°19' E 009°53'0 0.0
2017-Dec-12 12:30N 63°19' E 009°53'0 0.0
2017-Dec-12 12:00N 63°19' E 009°53'0 0.0
2017-Dec-12 11:30N 63°19' E 009°53'0 0.0
2017-Dec-12 11:00N 63°19' E 009°53'0 0.0
2017-Dec-12 10:30N 63°19' E 009°53'0 0.0
2017-Dec-12 10:00N 63°19' E 009°53'0 0.0
2017-Dec-12 09:30N 63°19' E 009°53'0 0.0
2017-Dec-12 09:00N 63°19' E 009°53'0 0.0
2017-Dec-12 08:27N 63°19' E 009°53'0 0.0
2017-Dec-12 08:00N 63°19' E 009°53'0 0.0
2017-Dec-12 07:30N 63°19' E 009°53'0 0.0
2017-Dec-12 07:00N 63°19' E 009°53'0 0.0
2017-Dec-12 06:30N 63°19' E 009°53'0 0.0
2017-Dec-12 06:00N 63°19' E 009°53'0 0.2
2017-Dec-12 05:30N 63°19' E 009°53'4 7.2
2017-Dec-12 05:00N 63°22' E 009°57'510.4
2017-Dec-12 04:30N 63°28' E 009°59'510.1
2017-Dec-12 04:00N 63°32' E 009°53'510.7
2017-Dec-12 03:30N 63°37' E 009°48'4 7.8
2017-Dec-12 02:59N 63°39' E 009°40'510.7
2017-Dec-12 02:30N 63°36' E 009°30'611.2
2017-Dec-12 02:00N 63°33' E 009°19'611.9
2017-Dec-12 01:29N 63°30' E 009°07'611.5
2017-Dec-12 01:00N 63°28' E 008°56'611.3
2017-Dec-12 00:30N 63°26' E 008°44'611.4
2017-Dec-12 00:00N 63°24' E 008°32'611.2
2017-Dec-11 23:30N 63°21' E 008°22'611.5
2017-Dec-11 22:59N 63°17' E 008°12'611.6
2017-Dec-11 22:29N 63°14' E 008°00'510.6
2017-Dec-11 22:00N 63°13' E 007°49'5 9.6
2017-Dec-11 21:30N 63°15' E 007°39'510.2
2017-Dec-11 21:00N 63°13' E 007°28'510.7
2017-Dec-11 20:30N 63°11' E 007°17'5 9.9
2017-Dec-11 20:00N 63°10' E 007°06'2 3.5
2017-Dec-11 19:30N 63°11' E 007°10'4 7.8
2017-Dec-11 19:00N 63°08' E 007°03'510.4
2017-Dec-11 18:30N 63°06' E 006°53'510.2
2017-Dec-11 18:00N 63°04' E 006°42'510.2
2017-Dec-11 17:30N 63°02' E 006°32'510.1
2017-Dec-11 17:00N 62°59' E 006°23'510.2
2017-Dec-11 16:29N 62°55' E 006°15'510.1
2017-Dec-11 16:00N 62°52' E 006°08'510.1
2017-Dec-11 15:30N 62°48' E 005°60'510.2
2017-Dec-11 15:00N 62°44' E 005°52'510.1
2017-Dec-11 14:30N 62°41' E 005°44'510.2
2017-Dec-11 14:00N 62°37' E 005°36'510.2
2017-Dec-11 13:30N 62°34' E 005°28'510.1
2017-Dec-11 13:00N 62°30' E 005°20'5 9.9
2017-Dec-11 12:30N 62°26' E 005°15'5 9.8
2017-Dec-11 11:59N 62°22' E 005°09'5 9.8
2017-Dec-11 11:30N 62°18' E 005°04'510.3
2017-Dec-11 11:00N 62°13' E 004°57'510.2
2017-Dec-11 10:30N 62°09' E 004°51'5 9.9
2017-Dec-11 10:00N 62°05' E 004°46'5 9.7
2017-Dec-11 09:30N 62°00' E 004°42'2 3.7
2017-Dec-11 09:00N 61°59' E 004°41'2 3.5
2017-Dec-11 08:30N 61°57' E 004°39'2 4.5
2017-Dec-11 08:00N 61°55' E 004°37'3 5.7
2017-Dec-11 07:29N 61°52' E 004°35'3 6.9
2017-Dec-11 07:00N 61°49' E 004°32'4 9.0
2017-Dec-11 06:30N 61°45' E 004°28'5 9.1
2017-Dec-11 06:00N 61°41' E 004°25'15 8.8
2017-Dec-11 04:15N 61°26' E 004°19'2 8.6
2017-Dec-11 04:00N 61°24' E 004°19'4 8.7
2017-Dec-11 03:30N 61°19' E 004°19'4 8.9
2017-Dec-11 03:00N 61°15' E 004°18'5 8.9
2017-Dec-11 02:30N 61°10' E 004°18'4 9.0
2017-Dec-11 02:00N 61°06' E 004°18'4 8.8
2017-Dec-11 01:30N 61°02' E 004°17'5 9.0
2017-Dec-11 01:00N 60°57' E 004°17'4 8.9
2017-Dec-11 00:30N 60°53' E 004°18'4 8.9
2017-Dec-11 00:00N 60°48' E 004°19'5 9.2
2017-Dec-10 23:30N 60°44' E 004°21'5 9.2
2017-Dec-10 22:59N 60°39' E 004°22'4 8.9
2017-Dec-10 22:30N 60°35' E 004°23'5 9.1
2017-Dec-10 22:00N 60°30' E 004°25'5 9.3
2017-Dec-10 21:30N 60°26' E 004°25'5 9.1
2017-Dec-10 21:00N 60°21' E 004°26'86 8.3
2017-Dec-10 10:38N 58°56' E 004°57'1 8.6
2017-Dec-10 10:30N 58°55' E 004°58'4 8.4
2017-Dec-10 10:00N 58°51' E 005°01'4 8.1
2017-Dec-10 09:30N 58°47' E 005°02'5 9.1
2017-Dec-10 09:00N 58°43' E 005°04'4 8.9
2017-Dec-10 08:30N 58°38' E 005°07'4 8.7
2017-Dec-10 08:00N 58°34' E 005°10'4 8.7
2017-Dec-10 07:30N 58°30' E 005°13'4 8.4
2017-Dec-10 07:00N 58°27' E 005°16'4 8.7
2017-Dec-10 06:30N 58°23' E 005°21'4 8.4
2017-Dec-10 06:00N 58°20' E 005°26'4 8.1
2017-Dec-10 05:30N 58°16' E 005°31'4 7.8
2017-Dec-10 05:00N 58°14' E 005°36'279 6.1
2017-Dec-08 07:04N 53°36' E 004°50'1 8.6
2017-Dec-08 07:00N 53°35' E 004°49'4 8.2
2017-Dec-08 06:28N 53°31' E 004°47'4 7.7
2017-Dec-08 05:59N 53°28' E 004°44'4 7.3
2017-Dec-08 05:29N 53°25' E 004°42'19 7.3
2017-Dec-08 02:57N 53°08' E 004°29'3 7.1
2017-Dec-08 02:28N 53°05' E 004°26'6 7.0
2017-Dec-08 01:38N 52°60' E 004°22'1 7.1
2017-Dec-08 01:29N 52°59' E 004°21'3 7.0
2017-Dec-08 01:00N 52°56' E 004°18'4 6.8
2017-Dec-08 00:22N 52°52' E 004°15'2 6.5
2017-Dec-08 00:01N 52°50' E 004°13'3 5.9
2017-Dec-07 23:30N 52°47' E 004°12'2 5.0
2017-Dec-07 23:00N 52°45' E 004°11'2 4.2
2017-Dec-07 22:30N 52°43' E 004°13'2 4.5
2017-Dec-07 22:00N 52°41' E 004°14'3 5.1
2017-Dec-07 21:30N 52°38' E 004°16'3 5.6
2017-Dec-07 21:00N 52°36' E 004°19'3 6.4
2017-Dec-07 20:31N 52°34' E 004°23'4 7.7
2017-Dec-07 20:00N 52°31' E 004°27'4 8.0
2017-Dec-07 19:30N 52°28' E 004°32'3 5.4
2017-Dec-07 19:00N 52°28' E 004°36'0 1.0
2017-Dec-07 18:30N 52°28' E 004°37'3 6.5
2017-Dec-07 18:00N 52°27' E 004°42'4 5.4
2017-Dec-07 17:17N 52°24' E 004°47'0 0.0
2017-Dec-07 16:50N 52°24' E 004°47'0 0.0
2017-Dec-07 16:26N 52°24' E 004°47'0 0.0
2017-Dec-07 15:59N 52°24' E 004°47'0 0.0
2017-Dec-07 15:29N 52°24' E 004°47'0 0.0
2017-Dec-07 14:56N 52°24' E 004°47'0 0.0
2017-Dec-07 14:29N 52°24' E 004°47'0 0.0
2017-Dec-07 13:56N 52°24' E 004°47'0 0.0
2017-Dec-07 13:26N 52°24' E 004°47'0 0.0
2017-Dec-07 12:59N 52°24' E 004°47'0 0.0
2017-Dec-07 12:29N 52°24' E 004°47'0 0.0
2017-Dec-07 11:59N 52°24' E 004°47'0 0.0
2017-Dec-07 11:29N 52°24' E 004°47'0 0.0
2017-Dec-07 10:59N 52°24' E 004°47'0 0.0
2017-Dec-07 10:29N 52°24' E 004°47'0 0.0
2017-Dec-07 09:56N 52°24' E 004°47'0 0.0
2017-Dec-07 09:23N 52°24' E 004°47'0 0.0
2017-Dec-07 08:59N 52°24' E 004°47'0 0.0
2017-Dec-07 08:17N 52°24' E 004°47'0 0.0
2017-Dec-07 07:59N 52°24' E 004°47'0 0.0
2017-Dec-07 07:29N 52°24' E 004°47'0 0.0
2017-Dec-07 06:56N 52°24' E 004°47'0 0.0
2017-Dec-07 06:26N 52°24' E 004°47'0 0.0
2017-Dec-07 05:53N 52°24' E 004°47'0 0.0
2017-Dec-07 05:29N 52°24' E 004°47'0 0.0
2017-Dec-07 04:59N 52°24' E 004°47'0 0.0
2017-Dec-07 04:29N 52°24' E 004°47'0 0.0
2017-Dec-07 03:59N 52°24' E 004°47'0 0.0
2017-Dec-07 03:20N 52°24' E 004°47'0 0.0
2017-Dec-07 02:59N 52°24' E 004°47'0 0.3
2017-Dec-07 02:26N 52°24' E 004°47'0 0.0
2017-Dec-07 01:53N 52°24' E 004°47'0 0.0
2017-Dec-07 01:26N 52°24' E 004°47'0 0.0
2017-Dec-07 00:56N 52°24' E 004°47'0 0.0
2017-Dec-07 00:26N 52°24' E 004°47'0 0.0
2017-Dec-06 23:59N 52°24' E 004°47'0 0.0
2017-Dec-06 23:29N 52°24' E 004°47'0 0.0
2017-Dec-06 22:59N 52°24' E 004°47'0 0.0
2017-Dec-06 22:29N 52°24' E 004°47'0 0.0
2017-Dec-06 21:59N 52°24' E 004°47'0 0.0
2017-Dec-06 21:29N 52°24' E 004°47'0 0.0
2017-Dec-06 20:59N 52°24' E 004°47'  

Dump ship's entire track history